createdAt,value
2022-12-08T00:01:09.112Z,3.27
2022-12-08T00:03:36.019Z,3.33
2022-12-08T00:06:22.628Z,3.41
2022-12-08T00:09:07.778Z,3.46
2022-12-08T00:11:34.367Z,3.40
2022-12-08T00:14:00.919Z,3.36
2022-12-08T00:16:27.353Z,3.37
2022-12-08T00:18:53.829Z,3.31
2022-12-08T00:21:20.243Z,3.22
2022-12-08T00:23:46.602Z,3.21
2022-12-08T00:26:12.965Z,3.21
2022-12-08T00:28:39.342Z,3.25
2022-12-08T00:31:10.115Z,3.30
2022-12-08T00:33:36.590Z,3.35
2022-12-08T00:36:10.194Z,3.29
2022-12-08T00:38:36.990Z,3.35
2022-12-08T00:41:04.218Z,3.26
2022-12-08T00:43:30.594Z,3.28
2022-12-08T00:45:56.976Z,3.29
2022-12-08T00:48:23.417Z,3.18
2022-12-08T00:50:49.900Z,3.26
2022-12-08T00:53:16.270Z,3.32
2022-12-08T00:55:43.332Z,3.39
2022-12-08T00:58:09.693Z,3.41
2022-12-08T01:00:36.075Z,3.38
2022-12-08T01:03:02.539Z,3.38
2022-12-08T01:05:28.971Z,3.39
2022-12-08T01:07:55.421Z,3.44
2022-12-08T01:10:21.853Z,3.38
2022-12-08T01:12:48.229Z,3.47
2022-12-08T01:15:14.628Z,3.41
2022-12-08T01:17:40.993Z,3.46
2022-12-08T01:20:07.937Z,3.49
2022-12-08T01:22:35.711Z,3.39
2022-12-08T01:25:02.778Z,3.56
2022-12-08T01:27:29.157Z,3.34
2022-12-08T01:29:55.524Z,3.45
2022-12-08T01:32:21.927Z,3.37
2022-12-08T01:34:48.350Z,3.31
2022-12-08T01:37:14.829Z,3.18
2022-12-08T01:39:41.228Z,3.27
2022-12-08T01:42:19.685Z,3.12
2022-12-08T01:44:45.980Z,3.34
2022-12-08T01:47:12.434Z,3.34
2022-12-08T01:49:38.823Z,3.31
2022-12-08T01:52:15.580Z,3.29
2022-12-08T01:54:48.649Z,3.34
2022-12-08T01:57:25.424Z,3.44
2022-12-08T01:59:55.188Z,3.43
2022-12-08T02:02:21.575Z,3.46
2022-12-08T02:04:47.978Z,3.44
2022-12-08T02:07:15.010Z,3.35
2022-12-08T02:09:41.661Z,3.33
2022-12-08T02:12:08.627Z,3.33
2022-12-08T02:14:35.269Z,3.33
2022-12-08T02:17:22.323Z,3.33
2022-12-08T02:20:14.939Z,3.50
2022-12-08T02:23:01.563Z,3.41
2022-12-08T02:25:38.280Z,3.46
2022-12-08T02:28:44.925Z,3.37
2022-12-08T02:31:19.909Z,3.33
2022-12-08T02:34:10.200Z,3.35
2022-12-08T02:36:49.022Z,3.33
2022-12-08T02:39:21.402Z,3.31
2022-12-08T02:41:55.778Z,3.29
2022-12-08T02:44:30.116Z,3.25
2022-12-08T02:47:24.367Z,3.31
2022-12-08T02:49:50.770Z,3.35
2022-12-08T02:52:17.036Z,3.29
2022-12-08T02:54:47.707Z,3.32
2022-12-08T02:57:31.527Z,3.34
2022-12-08T03:00:21.481Z,3.30
2022-12-08T03:02:56.968Z,3.26
2022-12-08T03:05:32.524Z,3.34
2022-12-08T03:08:03.908Z,3.28
2022-12-08T03:10:36.011Z,3.34
2022-12-08T03:13:10.073Z,3.39
2022-12-08T03:15:37.378Z,3.35
2022-12-08T03:18:04.543Z,3.29
2022-12-08T03:20:32.925Z,3.39
2022-12-08T03:23:00.402Z,3.34
2022-12-08T03:25:30.922Z,3.37
2022-12-08T03:27:57.732Z,3.37
2022-12-08T03:30:24.110Z,3.46
2022-12-08T03:32:59.710Z,3.42
2022-12-08T03:35:28.525Z,3.39
2022-12-08T03:38:07.570Z,3.48
2022-12-08T03:40:34.418Z,3.43
2022-12-08T03:43:00.739Z,3.41
2022-12-08T03:45:27.107Z,3.45
2022-12-08T03:47:53.443Z,3.49
2022-12-08T03:50:19.777Z,3.51
2022-12-08T03:52:46.116Z,3.47
2022-12-08T03:55:12.480Z,3.46
2022-12-08T03:57:38.828Z,3.45
2022-12-08T04:00:07.167Z,3.52
2022-12-08T04:02:33.682Z,3.49
2022-12-08T04:05:00.039Z,3.53
2022-12-08T04:07:26.385Z,3.53
2022-12-08T04:09:52.720Z,3.50
2022-12-08T04:12:19.073Z,3.58
2022-12-08T04:14:45.402Z,3.54
2022-12-08T04:17:11.736Z,3.49
2022-12-08T04:19:38.058Z,3.56
2022-12-08T04:22:04.395Z,3.47
2022-12-08T04:24:30.716Z,3.55
2022-12-08T04:26:57.039Z,3.51
2022-12-08T04:29:23.485Z,3.44
2022-12-08T04:31:49.878Z,3.45
2022-12-08T04:34:16.227Z,3.48
2022-12-08T04:36:42.633Z,3.41
2022-12-08T04:39:09.039Z,3.22
2022-12-08T04:41:35.401Z,3.34
2022-12-08T04:44:01.754Z,3.39
2022-12-08T04:46:28.128Z,3.37
2022-12-08T04:48:54.592Z,3.46
2022-12-08T04:51:21.471Z,3.36
2022-12-08T04:53:48.210Z,3.38
2022-12-08T04:56:18.634Z,3.36
2022-12-08T04:58:45.554Z,3.41
2022-12-08T05:01:12.692Z,3.27
2022-12-08T05:03:39.314Z,3.11
2022-12-08T05:06:05.978Z,3.15
2022-12-08T05:08:32.436Z,3.27
2022-12-08T05:11:06.946Z,3.30
2022-12-08T05:13:33.601Z,3.27
2022-12-08T05:16:08.915Z,3.31
2022-12-08T05:18:35.911Z,3.37
2022-12-08T05:21:02.890Z,3.39
2022-12-08T05:23:29.254Z,3.45
2022-12-08T05:25:55.624Z,3.45
2022-12-08T05:31:08.470Z,3.26
2022-12-08T05:33:34.852Z,3.29
2022-12-08T05:36:01.221Z,3.22
2022-12-08T05:38:27.610Z,3.28
2022-12-08T05:40:53.950Z,3.51
2022-12-08T05:43:20.322Z,3.38
2022-12-08T05:45:46.789Z,3.25
2022-12-08T05:48:13.201Z,3.31
2022-12-08T05:50:39.899Z,3.38
2022-12-08T05:53:06.282Z,3.35
2022-12-08T05:55:32.656Z,3.16
2022-12-08T05:58:03.076Z,3.25
2022-12-08T06:00:34.740Z,3.10
2022-12-08T06:03:01.376Z,3.07
2022-12-08T06:05:27.888Z,3.19
2022-12-08T06:07:54.345Z,3.30
2022-12-08T06:10:20.754Z,3.27
2022-12-08T06:12:47.109Z,3.27
2022-12-08T06:16:25.242Z,3.28
2022-12-08T06:18:51.762Z,3.22
2022-12-08T06:21:18.551Z,3.08
2022-12-08T06:23:48.443Z,3.16
2022-12-08T06:26:15.720Z,2.82
2022-12-08T06:28:42.733Z,3.15
2022-12-08T06:31:25.542Z,3.02
2022-12-08T06:33:52.870Z,3.08
2022-12-08T06:36:21.644Z,3.00
2022-12-08T06:38:48.610Z,3.09
2022-12-08T06:41:15.176Z,3.26
2022-12-08T06:43:41.997Z,2.99
2022-12-08T06:46:11.278Z,3.14
2022-12-08T06:48:37.855Z,3.08
2022-12-08T06:51:12.254Z,3.16
2022-12-08T06:53:39.416Z,3.19
2022-12-08T06:56:06.437Z,3.18
2022-12-08T06:58:32.812Z,3.02
2022-12-08T07:01:07.051Z,2.86
2022-12-08T07:03:33.481Z,3.03
2022-12-08T07:06:03.792Z,2.92
2022-12-08T07:08:31.209Z,2.93
2022-12-08T07:10:57.659Z,2.86
2022-12-08T07:13:24.052Z,2.78
2022-12-08T07:15:50.379Z,2.80
2022-12-08T07:18:16.747Z,2.70
2022-12-08T07:20:43.079Z,2.51
2022-12-08T07:23:09.691Z,2.61
2022-12-08T07:25:36.022Z,2.36
2022-12-08T07:28:07.905Z,2.62
2022-12-08T07:30:34.284Z,2.74
2022-12-08T07:33:02.433Z,2.59
2022-12-08T07:35:28.769Z,2.75
2022-12-08T07:37:55.093Z,2.96
2022-12-08T07:40:21.423Z,2.76
2022-12-08T07:42:47.757Z,2.53
2022-12-08T07:45:14.178Z,2.63
2022-12-08T07:47:40.504Z,2.52
2022-12-08T07:50:07.900Z,2.81
2022-12-08T07:52:35.472Z,2.79
2022-12-08T07:55:02.038Z,2.91
2022-12-08T07:57:28.381Z,3.04
2022-12-08T07:59:54.713Z,3.09
2022-12-08T08:02:25.007Z,3.17
2022-12-08T08:04:52.729Z,3.00
2022-12-08T08:07:19.135Z,3.18
2022-12-08T08:09:45.701Z,3.16
2022-12-08T08:12:30.798Z,3.14
2022-12-08T08:14:58.210Z,3.11
2022-12-08T08:17:24.784Z,3.12
2022-12-08T08:19:51.299Z,2.96
2022-12-08T08:22:17.618Z,2.79
2022-12-08T08:24:45.244Z,3.00
2022-12-08T08:27:11.866Z,2.65
2022-12-08T08:29:38.210Z,2.91
2022-12-08T08:32:04.588Z,2.82
2022-12-08T08:34:31.044Z,3.11
2022-12-08T08:36:57.457Z,2.97
2022-12-08T08:39:23.910Z,3.26
2022-12-08T08:41:50.283Z,3.22
2022-12-08T08:44:16.639Z,3.27
2022-12-08T08:46:43.104Z,3.22
2022-12-08T08:49:09.519Z,3.31
2022-12-08T08:51:35.892Z,3.33
2022-12-08T08:54:02.251Z,3.02
2022-12-08T08:56:28.634Z,3.18
2022-12-08T08:58:55.079Z,3.16
2022-12-08T09:01:24.460Z,3.34
2022-12-08T09:03:51.224Z,3.27
2022-12-08T09:06:18.076Z,3.04
2022-12-08T09:08:45.007Z,3.03
2022-12-08T09:11:11.849Z,3.03
2022-12-08T09:13:38.420Z,3.01
2022-12-08T09:16:06.320Z,2.98
2022-12-08T09:18:32.730Z,2.87
2022-12-08T09:21:12.950Z,3.08
2022-12-08T09:23:39.814Z,3.08
2022-12-08T09:26:06.642Z,2.94
2022-12-08T09:28:33.475Z,3.11
2022-12-08T09:31:00.209Z,2.97
2022-12-08T09:33:26.681Z,3.19
2022-12-08T09:35:53.043Z,3.00
2022-12-08T09:38:19.409Z,3.03
2022-12-08T09:40:53.522Z,2.98
2022-12-08T09:43:22.825Z,2.99
2022-12-08T09:45:51.593Z,2.81
2022-12-08T09:48:24.333Z,3.11
2022-12-08T09:50:54.309Z,3.20
2022-12-08T09:53:36.636Z,3.10
2022-12-08T09:56:08.898Z,3.29
2022-12-08T09:58:57.927Z,3.15
2022-12-08T10:01:28.561Z,3.18
2022-12-08T10:03:55.991Z,3.07
2022-12-08T10:06:59.904Z,2.98
2022-12-08T10:09:50.197Z,3.13
2022-12-08T10:12:51.979Z,3.07
2022-12-08T10:15:33.426Z,2.78
2022-12-08T10:18:04.402Z,2.84
2022-12-08T10:20:39.986Z,3.01
2022-12-08T10:23:15.548Z,3.05
2022-12-08T10:25:46.331Z,3.03
2022-12-08T10:28:12.761Z,2.86
2022-12-08T10:30:39.290Z,3.08
2022-12-08T10:33:10.556Z,3.05
2022-12-08T10:35:49.105Z,2.94
2022-12-08T10:38:36.089Z,2.63
2022-12-08T10:41:11.688Z,2.93
2022-12-08T10:43:44.834Z,3.08
2022-12-08T10:46:13.458Z,3.21
2022-12-08T10:48:57.425Z,3.12
2022-12-08T10:51:29.741Z,3.16
2022-12-08T10:53:56.036Z,3.04
2022-12-08T10:56:26.826Z,3.05
2022-12-08T10:59:17.495Z,3.08
2022-12-08T11:01:51.819Z,2.93
2022-12-08T11:04:20.612Z,3.12
2022-12-08T11:06:47.710Z,3.02
2022-12-08T11:09:17.036Z,2.87
2022-12-08T11:12:17.950Z,3.00
2022-12-08T11:14:44.176Z,2.95
2022-12-08T11:17:13.933Z,2.66
2022-12-08T11:19:45.426Z,3.09
2022-12-08T11:22:22.294Z,3.05
2022-12-08T11:24:58.439Z,3.34
2022-12-08T11:27:24.831Z,3.21
2022-12-08T11:29:51.410Z,3.38
2022-12-08T11:32:17.738Z,3.10
2022-12-08T11:34:57.481Z,2.93
2022-12-08T11:37:34.435Z,3.24
2022-12-08T11:40:10.402Z,3.41
2022-12-08T11:42:52.091Z,3.35
2022-12-08T11:45:27.406Z,3.16
2022-12-08T11:48:17.591Z,3.32
2022-12-08T11:50:51.391Z,3.47
2022-12-08T11:53:51.451Z,3.57
2022-12-08T11:56:32.468Z,3.51
2022-12-08T11:59:10.780Z,3.47
2022-12-08T12:01:42.386Z,3.40
2022-12-08T12:04:36.710Z,3.52
2022-12-08T12:07:24.546Z,3.35
2022-12-08T12:10:07.910Z,3.51
2022-12-08T12:12:49.773Z,3.51
2022-12-08T12:15:37.837Z,3.33
2022-12-08T12:18:26.051Z,3.46
2022-12-08T12:20:58.571Z,3.46
2022-12-08T12:23:40.422Z,3.39
2022-12-08T12:26:08.724Z,3.46
2022-12-08T12:28:56.416Z,3.63
2022-12-08T12:31:31.319Z,3.56
2022-12-08T12:34:07.418Z,3.54
2022-12-08T12:36:46.703Z,3.56
2022-12-08T12:39:13.774Z,3.60
2022-12-08T12:41:50.736Z,3.62
2022-12-08T12:44:29.138Z,3.61
2022-12-08T12:47:00.698Z,3.45
2022-12-08T12:49:45.988Z,3.48
2022-12-08T12:52:15.223Z,3.61
2022-12-08T12:55:10.220Z,3.53
2022-12-08T12:57:50.808Z,3.53
2022-12-08T13:00:19.497Z,3.41
2022-12-08T13:02:48.998Z,3.36
2022-12-08T13:05:23.228Z,3.28
2022-12-08T13:07:55.543Z,3.34
2022-12-08T13:10:31.673Z,3.47
2022-12-08T13:13:05.519Z,3.48
2022-12-08T13:16:18.774Z,3.44
2022-12-08T13:19:13.156Z,3.50
2022-12-08T13:21:39.713Z,3.59
2022-12-08T13:24:35.594Z,3.50
2022-12-08T13:27:04.958Z,3.31
2022-12-08T13:29:32.707Z,3.32
2022-12-08T13:32:03.555Z,3.21
2022-12-08T13:34:45.340Z,3.26
2022-12-08T13:37:11.641Z,3.32
2022-12-08T13:39:40.916Z,3.24
2022-12-08T13:42:35.095Z,3.16
2022-12-08T13:45:48.680Z,2.99
2022-12-08T13:49:52.716Z,2.99
2022-12-08T13:57:33.127Z,3.12
2022-12-08T14:00:08.696Z,3.05
2022-12-08T14:02:47.340Z,3.05
2022-12-08T14:05:18.557Z,3.05
2022-12-08T14:07:47.200Z,3.15
2022-12-08T14:10:18.200Z,3.12
2022-12-08T14:12:46.958Z,3.03
2022-12-08T14:15:14.368Z,3.05
2022-12-08T14:17:41.382Z,3.02
2022-12-08T14:20:27.392Z,2.96
2022-12-08T14:22:53.909Z,2.83
2022-12-08T14:25:21.561Z,2.92
2022-12-08T14:27:48.222Z,2.89
2022-12-08T14:30:14.729Z,2.90
2022-12-08T14:32:46.707Z,2.88
2022-12-08T14:35:23.497Z,2.93
2022-12-08T14:37:51.570Z,2.69
2022-12-08T14:40:37.203Z,2.84
2022-12-08T14:43:15.254Z,2.70
2022-12-08T14:45:44.560Z,2.88
2022-12-08T14:48:38.815Z,2.73
2022-12-08T14:51:07.502Z,2.91
2022-12-08T14:53:37.542Z,3.01
2022-12-08T14:56:47.323Z,3.10
2022-12-08T14:59:15.012Z,2.99
2022-12-08T15:01:42.889Z,3.12
2022-12-08T15:04:12.259Z,2.98
2022-12-08T15:06:54.235Z,2.76
2022-12-08T15:09:37.173Z,2.97
2022-12-08T15:12:15.724Z,2.97
2022-12-08T15:14:44.120Z,2.93
2022-12-08T15:17:53.772Z,2.90
2022-12-08T15:20:35.864Z,2.76
2022-12-08T15:23:02.537Z,2.83
2022-12-08T15:25:29.010Z,2.78
2022-12-08T15:27:57.805Z,2.85
2022-12-08T15:30:28.514Z,2.77
2022-12-08T15:32:56.036Z,2.68
2022-12-08T15:35:22.683Z,2.82
2022-12-08T15:37:49.094Z,2.73
2022-12-08T15:40:18.690Z,2.66
2022-12-08T15:42:45.400Z,2.85
2022-12-08T15:45:13.710Z,2.78
2022-12-08T15:47:40.155Z,2.82
2022-12-08T15:50:07.567Z,2.92
2022-12-08T15:52:36.765Z,2.86
2022-12-08T15:55:03.167Z,2.85
2022-12-08T15:58:04.416Z,2.90
2022-12-08T16:00:50.510Z,2.97
2022-12-08T16:04:19.920Z,2.98
2022-12-08T16:09:12.249Z,3.12
2022-12-08T16:12:06.706Z,3.16
2022-12-08T16:15:39.178Z,3.08
2022-12-08T16:17:21.279Z,3.14
2022-12-08T16:19:47.648Z,3.16
2022-12-08T16:22:54.610Z,3.14
2022-12-08T16:25:18.909Z,3.12
2022-12-08T16:28:17.259Z,3.17
2022-12-08T16:30:33.664Z,3.16
2022-12-08T16:33:00.045Z,3.12
2022-12-08T16:35:26.393Z,3.09
2022-12-08T16:37:52.764Z,3.03
2022-12-08T16:40:19.171Z,3.11
2022-12-08T16:42:49.850Z,3.11
2022-12-08T16:45:17.324Z,3.11
2022-12-08T16:47:49.755Z,3.11
2022-12-08T16:50:19.100Z,3.10
2022-12-08T16:52:46.411Z,3.07
2022-12-08T16:55:15.335Z,3.06
2022-12-08T16:57:42.104Z,3.09
2022-12-08T17:00:11.184Z,3.03
2022-12-08T17:02:37.605Z,3.11
2022-12-08T17:05:04.524Z,3.15
2022-12-08T17:07:30.940Z,3.16
2022-12-08T17:09:58.197Z,3.16
2022-12-08T17:12:24.594Z,3.03
2022-12-08T17:14:50.946Z,3.12
2022-12-08T17:17:17.336Z,2.99
2022-12-08T17:19:43.756Z,3.12
2022-12-08T17:22:10.136Z,3.13
2022-12-08T17:24:37.326Z,3.09
2022-12-08T17:27:04.294Z,3.00
2022-12-08T17:29:31.799Z,3.11
2022-12-08T17:31:58.373Z,3.17
2022-12-08T17:34:24.879Z,3.18
2022-12-08T17:36:51.664Z,3.18
2022-12-08T17:39:19.154Z,3.14
2022-12-08T17:41:46.184Z,3.08
2022-12-08T17:44:14.586Z,3.11
2022-12-08T17:46:45.259Z,2.85
2022-12-08T17:49:18.710Z,2.70
2022-12-08T17:51:49.197Z,2.67
2022-12-08T17:54:16.842Z,2.52
2022-12-08T17:56:43.642Z,2.59
2022-12-08T17:59:10.774Z,2.57
2022-12-08T18:01:37.452Z,2.54
2022-12-08T18:04:05.308Z,2.76
2022-12-08T18:06:31.923Z,2.74
2022-12-08T18:08:59.406Z,2.44
2022-12-08T18:11:26.793Z,2.41
2022-12-08T18:13:53.975Z,2.42
2022-12-08T18:16:23.396Z,2.58
2022-12-08T18:18:49.941Z,2.68
2022-12-08T18:21:23.007Z,2.71
2022-12-08T18:23:50.527Z,2.67
2022-12-08T18:26:16.926Z,2.70
2022-12-08T18:28:43.763Z,2.73
2022-12-08T18:31:11.661Z,2.64
2022-12-08T18:33:39.853Z,2.69
2022-12-08T18:36:10.773Z,2.85
2022-12-08T18:38:38.109Z,2.25
2022-12-08T18:41:09.800Z,2.53
2022-12-08T18:43:36.872Z,2.60
2022-12-08T18:46:04.700Z,2.56
2022-12-08T18:48:31.112Z,2.46
2022-12-08T18:50:57.453Z,2.60
2022-12-08T18:53:23.818Z,2.54
2022-12-08T18:55:50.938Z,2.33
2022-12-08T18:58:17.865Z,2.39
2022-12-08T19:00:44.273Z,2.43
2022-12-08T19:03:10.858Z,2.51
2022-12-08T19:05:37.498Z,2.44
2022-12-08T19:08:03.979Z,2.49
2022-12-08T19:10:32.047Z,2.45
2022-12-08T19:12:58.384Z,2.49
2022-12-08T19:15:24.753Z,2.49
2022-12-08T19:17:51.093Z,2.42
2022-12-08T19:20:17.598Z,2.42
2022-12-08T19:22:43.938Z,2.36
2022-12-08T19:25:10.415Z,2.34
2022-12-08T19:27:36.786Z,2.32
2022-12-08T19:30:04.053Z,2.35
2022-12-08T19:32:30.949Z,2.30
2022-12-08T19:34:57.315Z,2.23
2022-12-08T19:37:23.661Z,2.23
2022-12-08T19:40:09.063Z,2.16
2022-12-08T19:42:54.338Z,2.17
2022-12-08T19:45:22.155Z,2.12
2022-12-08T19:47:48.923Z,2.18
2022-12-08T19:50:34.980Z,2.13
2022-12-08T19:53:11.928Z,2.09
2022-12-08T19:55:38.679Z,2.15
2022-12-08T19:58:06.788Z,2.19
2022-12-08T20:00:34.111Z,2.34
2022-12-08T20:03:02.074Z,2.44
2022-12-08T20:05:30.131Z,2.44
2022-12-08T20:07:56.698Z,2.43
2022-12-08T20:10:29.717Z,2.35
2022-12-08T20:13:16.517Z,2.44
2022-12-08T20:15:44.867Z,2.46
2022-12-08T20:18:12.634Z,2.30
2022-12-08T20:20:40.029Z,2.44
2022-12-08T20:23:06.427Z,2.32
2022-12-08T20:25:33.124Z,2.43
2022-12-08T20:27:59.577Z,2.40
2022-12-08T20:30:25.930Z,2.41
2022-12-08T20:32:52.272Z,2.47
2022-12-08T20:35:18.685Z,2.58
2022-12-08T20:37:45.064Z,2.56
2022-12-08T20:40:11.673Z,2.57
2022-12-08T20:42:38.055Z,2.63
2022-12-08T20:45:07.173Z,2.73
2022-12-08T20:47:33.673Z,2.77
2022-12-08T20:50:00.299Z,2.79
2022-12-08T20:52:26.746Z,2.74
2022-12-08T20:54:53.243Z,2.69
2022-12-08T20:57:19.893Z,2.75
2022-12-08T20:59:46.338Z,2.74
2022-12-08T21:02:12.884Z,2.65
2022-12-08T21:04:39.517Z,2.61
2022-12-08T21:07:08.625Z,2.57
2022-12-08T21:09:36.207Z,2.56
2022-12-08T21:12:02.835Z,2.60
2022-12-08T21:14:29.413Z,2.62
2022-12-08T21:16:56.190Z,2.64
2022-12-08T21:19:22.732Z,2.71
2022-12-08T21:21:50.499Z,2.81
2022-12-08T21:24:18.075Z,2.81
2022-12-08T21:26:44.824Z,2.78
2022-12-08T21:29:12.116Z,2.91
2022-12-08T21:31:38.713Z,2.91
2022-12-08T21:34:05.312Z,3.00
2022-12-08T21:36:32.005Z,2.91
2022-12-08T21:39:00.736Z,2.92
2022-12-08T21:41:45.883Z,2.86
2022-12-08T21:44:14.958Z,2.86
2022-12-08T21:46:42.344Z,2.83
2022-12-08T21:49:08.953Z,2.91
2022-12-08T21:51:37.817Z,2.79
2022-12-08T21:54:04.957Z,2.84
2022-12-08T21:56:31.496Z,2.77
2022-12-08T21:58:58.309Z,2.79
2022-12-08T22:01:24.851Z,2.76
2022-12-08T22:03:51.458Z,2.69
2022-12-08T22:06:18.007Z,2.68
2022-12-08T22:08:44.759Z,2.85
2022-12-08T22:11:12.093Z,2.75
2022-12-08T22:13:40.527Z,2.61
2022-12-08T22:16:11.448Z,2.71
2022-12-08T22:18:38.279Z,2.68
2022-12-08T22:21:09.811Z,2.56
2022-12-08T22:23:36.497Z,2.56
2022-12-08T22:26:04.081Z,2.42
2022-12-08T22:28:33.518Z,2.39
2022-12-08T22:31:00.908Z,2.32
2022-12-08T22:33:30.511Z,2.39
2022-12-08T22:35:58.152Z,2.42
2022-12-08T22:38:25.187Z,2.45
2022-12-08T22:40:52.264Z,2.53
2022-12-08T22:43:19.190Z,2.47
2022-12-08T22:45:45.763Z,2.44
2022-12-08T22:48:12.463Z,2.53
2022-12-08T22:50:39.106Z,2.52
2022-12-08T22:53:05.852Z,2.45
2022-12-08T22:55:32.766Z,2.56
2022-12-08T22:57:59.368Z,2.52
2022-12-08T23:00:25.739Z,2.47
2022-12-08T23:02:52.166Z,2.62
2022-12-08T23:05:18.855Z,2.43
2022-12-08T23:07:45.454Z,2.49
2022-12-08T23:10:12.221Z,2.33
2022-12-08T23:12:38.952Z,2.42
2022-12-08T23:15:06.048Z,2.43
2022-12-08T23:17:32.512Z,2.42
2022-12-08T23:19:58.938Z,2.43
2022-12-08T23:22:25.372Z,2.40
2022-12-08T23:24:51.867Z,2.47
2022-12-08T23:27:18.266Z,2.37
2022-12-08T23:29:44.891Z,2.39
2022-12-08T23:32:11.311Z,2.28
2022-12-08T23:34:37.970Z,2.21
2022-12-08T23:37:04.447Z,2.05
2022-12-08T23:39:30.836Z,2.07
2022-12-08T23:41:57.363Z,2.05
2022-12-08T23:44:23.945Z,1.93
2022-12-08T23:46:50.531Z,1.85
2022-12-08T23:49:17.218Z,1.84
2022-12-08T23:51:43.674Z,1.68
2022-12-08T23:54:10.074Z,1.59
2022-12-08T23:56:36.420Z,1.74
2022-12-08T23:59:02.787Z,1.73
